This site, now in its 15th season, is a labour of love and fun from one of Ottawa's most avid time trialists and number crunchers. It adheres to and is permitted by the laws of Canada, promotes the objectives of every bicycle club whose results are shown, and is donated free of charge by myself for your enjoyment and usage. If you would like results from series you ride in to be shown here, give me (celia@drmath.ca) a shout!


Index Page
ATT OTT WTT AATT CFCTT VVVTT
Help resultformat:
Case-sensitive

OBC Open TT Series - 1994-Jun-02 - 15km (Rockliffe Pkwy) (EvtFactor = 0.8308)

Weather (18:00): Mostly Cloudy. Temp.: 14.3C, Humidity: 51%, DewPoint: 4.2C, Wind: NNW 20km/h, Pressure: 100.06kPa, Visibility: 40.2km.
Weather (19:00): Mainly Clear. Temp.: 14.1C, Humidity: 52%, DewPoint: 4.3C, Wind: NNW 19km/h, Pressure: 100.13kPa, Visibility: 32.2km.
Weather (20:00): Mostly Cloudy. Temp.: 14.1C, Humidity: 56%, DewPoint: 5.4C, Wind: NNW 22km/h, Pressure: 100.19kPa, Visibility: 32.2km.

Send photos with description (when/where/what) of yourself on or off of bike to celia@drmath.ca

 
 

BESTS?
 
1 Roy, Patrick OBC 20:19 44.299 1/50 OVAM 1/9 0.9732
2 Bachman, Paul OBC 21:42 41.475 2/50 OSEM 1/23 1.0209
3 Cowan, Norman  OBC 21:49 41.253 3/50 OVAM 2/9 0.8898
Statchuk, Craig OBC 21:49 41.253 3/50 OVAM 2/9 1.1018
5 Moerman, Bram  OBC 22:11 40.571 5/50 OVBM 1/5 0.9710
6 Archambault, Marc --- 22:15 40.449 6/50 OSEM 2/23 0.9601
Ketchum, Bruce --- 22:15 40.449 6/50 OSEM 2/23  
Timleck, Andrew --- 22:15 40.449 6/50 OSEM 2/23 1.1312
9 Holt, Robert --- 22:19 40.329 9/50 OSEM 5/23  
St-Amour, Pierre OBC 22:19 40.329 9/50 OVAM 4/9 0.9889
11 MacDonald, Ryan --- 22:23 40.208 11/50 OSEM 6/23 0.8965
12 Campbell, Colin  OBC 22:25 40.149 12/50 OSEM 7/23 0.9779
13 Martignago, Mike OBC 22:26 40.119 13/50 OVAM 5/9 1.0067
14 MacMillan, Trevor OBC 22:28 40.059 14/50 OSEM 8/23 1.0406
15 Buffa, Alex  OBC 22:34 39.882 15/50 OSEM 9/23 0.9780
16 Hicks, Bob  OBC 22:37 39.794 16/50 OVBM 2/5 1.0201
Lavigne, Christian --- 22:37 39.794 16/50 OSEM 10/23  
18 Leach, Mike --- 22:57 39.216 18/50 OSEM 11/23 0.9382
19 Budd, Daniel OBC 23:04 39.017 19/50 OSEM 12/23 0.9699
20 Humphreys, Les  OBC/ABC 23:32 38.244 20/50 OVBM 3/5  
Johns, Mike --- 23:32 38.244 20/50 OSEM 13/23 0.7520
22 Leitch, Brendan --- 23:34 38.190 22/50 OSEM 14/23 1.1748
23 Clarke, David OBC 23:38 38.082 23/50 U18M 1/1 1.6689
24 Arts, Michael --- 23:45 37.895 24/50 OJUM 1/3 0.8731
25 Tamborine, Don --- 23:58 37.552 25/50 OVBM 4/5 0.9548
26 Benoit, Jacques --- 24:12 37.190 26/50 OSEM 15/23  
27 Moxley, Don OBC 24:14 37.139 27/50 OVBM 5/5  
28 Bachman, Mike OBC 24:17 37.062 28/50 OVCM 1/2 0.9634
29 Pritlove, James --- 24:18 37.037 29/50 OSEM 16/23 0.9044
30 Boissonneault, France OBC 24:26 36.835 30/50 OVAF 1/2  
31 Austen, Ian  OBC 24:29 36.760 31/50 OVAM 6/9 0.8694
32 Ménard, Monique OBC 24:43 36.413 32/50 OSEF 1/4 0.8668
33 Delisle, Stephane --- 24:46 36.339 33/50 OSEM 17/23 1.0638
34 Montpetit, Stephane --- 24:50 36.242 34/50 OSEM 18/23 1.0575
35 LaViolette, Nicole  OBC 25:01 35.976 35/50 OSEF 2/4  
36 Aller, Mo OBC 25:23 35.456 36/50 OVCM 2/2 0.9496
37 Adams, John --- 25:26 35.387 37/50 OSEM 19/23 1.0479
38 Crevier, Grégoire  OBC 25:27 35.363 38/50 OVAM 7/9  
39 Callum, John ABC 25:34 35.202 39/50 OJUM 2/3 0.8854
Weiman, David --- 25:34 35.202 39/50 OSEM 20/23 0.9219
41 Polischuk, Susan --- 25:48 34.884 41/50 OSEF 3/4 0.8882
42 Hicks, Terry --- 25:52 34.794 42/50 OVAM 8/9  
43 McInnis, Celia  OBC 26:09 34.417 43/50 OVAF 2/2 0.9309
44 Fortey, Brian ABC 26:20 34.177 44/50 OJUM 3/3 0.9152
45 Jofriet, Eric --- 26:28 34.005 45/50 OSEM 21/23 0.9981
46 James, Peter OBC 26:45 33.645 46/50 OVAM 9/9 0.9200
47 Holt, Lisa --- 27:01 33.313 47/50 OSEF 4/4  
48 Soucy, Dominic --- 28:00 32.143 48/50 OSEM 22/23 0.9647
49 Perel, Fredd OBC 34:29 26.100 49/50 OSEM 23/23 1.4099
50 Dawson, Michael OBC DNF   50/50 OCAM 1/1  
 
Average Speed of all of the above 49 finishes (735km in 19:44:15):37.239
>>>Average of the Average Speeds for these 49 finishes37.518<<<
 

The number of data records shown above is 50
The server processing of your query took: 1 wallclock secs ( 0.07 usr + 0.00 sys = 0.07 CPU)

     


Apr 1 (Good Friday) Apr 14 Apr 21 Apr 28
May 3 May 5 May 10 May 12 (22km) May 15 (40km) May 17 May 19 May 24 May 24 (10km) May 26 (cancelled) May 29 (40km)
  Jun 2  
Jun 5 (38km) Jun 7 Jun 9 Jun 14 (40km) Jun 14 Jun 16 Jun 21 Jun 21 Jun 23 Jun 26 (40km/80km) Jun 28 (40km) Jun 28 Jun 29
Jul 5 Jul 6 Jul 7 Jul 10 (22km) Jul 12 Jul 13 Jul 14 Jul 19 Jul 20 Jul 21 Jul 24 (38km) Jul 26 Jul 27 Jul 28
Aug 2 Aug 3 Aug 9 Aug 10 Aug 11 Aug 14 (40km/80km) Aug 16 Aug 17 Aug 18 Aug 20 (22km) Aug 23 Aug 24 Aug 28 (38km) Aug 30 (Invitational) Aug 31
Sep 1 Sep 6 Sep 8 Sep 13 Sep 20 Sep 25 (40km)

OTT Rankings
Best       Best by category
WTT Rankings for OBC Members
5 Best 15km     5 Best 15km by category
OBC Member Best Three 15km Rankings
Overall     by category
OBC BAR Ranking
Overall     by category     Rider "Consistency-Graph"
ABC BAR Ranking
Overall     by category     Rider "Consistency-Graph"
Other years
TT Calculator All TT People All TT events
ABC Home VVV Home
CKAP GOLD MEDAL
Other Links

Please send your comments and suggestions to: Celia McInnis
Copyright © 1998-2011 Celia McInnis. All rights reserved. Links are welcomed.